sensor_id;sensor_type;location;lat;lon;timestamp;pressure;altitude;pressure_sealevel;temperature
18219;BMP180;9234;49.344;11.120;2023-05-03T00:00:09;98327.00;;;8.80
18219;BMP180;9234;49.344;11.120;2023-05-03T00:02:39;98325.00;;;8.70
18219;BMP180;9234;49.344;11.120;2023-05-03T00:05:11;98331.00;;;8.70
18219;BMP180;9234;49.344;11.120;2023-05-03T00:07:42;98335.00;;;8.60
18219;BMP180;9234;49.344;11.120;2023-05-03T00:10:12;98314.00;;;8.60
18219;BMP180;9234;49.344;11.120;2023-05-03T00:12:43;98329.00;;;8.60
18219;BMP180;9234;49.344;11.120;2023-05-03T00:15:11;98329.00;;;8.50
18219;BMP180;9234;49.344;11.120;2023-05-03T00:17:39;98327.00;;;8.50
18219;BMP180;9234;49.344;11.120;2023-05-03T00:20:08;98327.00;;;8.40
18219;BMP180;9234;49.344;11.120;2023-05-03T00:22:38;98322.00;;;8.40
18219;BMP180;9234;49.344;11.120;2023-05-03T00:25:07;98335.00;;;8.40
18219;BMP180;9234;49.344;11.120;2023-05-03T00:27:37;98335.00;;;8.30
18219;BMP180;9234;49.344;11.120;2023-05-03T00:30:07;98318.00;;;8.30
18219;BMP180;9234;49.344;11.120;2023-05-03T00:32:36;98334.00;;;8.30
18219;BMP180;9234;49.344;11.120;2023-05-03T00:35:06;98334.00;;;8.20
18219;BMP180;9234;49.344;11.120;2023-05-03T00:37:36;98306.00;;;8.20
18219;BMP180;9234;49.344;11.120;2023-05-03T00:40:05;98308.00;;;8.10
18219;BMP180;9234;49.344;11.120;2023-05-03T00:42:36;98311.00;;;8.10
18219;BMP180;9234;49.344;11.120;2023-05-03T00:45:06;98303.00;;;8.00
18219;BMP180;9234;49.344;11.120;2023-05-03T00:47:35;98309.00;;;8.00
18219;BMP180;9234;49.344;11.120;2023-05-03T00:50:06;98317.00;;;8.00
18219;BMP180;9234;49.344;11.120;2023-05-03T00:52:38;98295.00;;;7.90
18219;BMP180;9234;49.344;11.120;2023-05-03T00:55:09;98306.00;;;7.90
18219;BMP180;9234;49.344;11.120;2023-05-03T00:57:38;98305.00;;;7.80
18219;BMP180;9234;49.344;11.120;2023-05-03T01:00:08;98303.00;;;7.80
18219;BMP180;9234;49.344;11.120;2023-05-03T01:02:39;98306.00;;;7.80
18219;BMP180;9234;49.344;11.120;2023-05-03T01:05:09;98294.00;;;7.70
18219;BMP180;9234;49.344;11.120;2023-05-03T01:10:38;98284.00;;;7.70
18219;BMP180;9234;49.344;11.120;2023-05-03T01:13:21;98301.00;;;7.60
18219;BMP180;9234;49.344;11.120;2023-05-03T01:15:58;98304.00;;;7.60
18219;BMP180;9234;49.344;11.120;2023-05-03T01:18:30;98294.00;;;7.60
18219;BMP180;9234;49.344;11.120;2023-05-03T01:21:01;98284.00;;;7.50
18219;BMP180;9234;49.344;11.120;2023-05-03T01:23:39;98290.00;;;7.50
18219;BMP180;9234;49.344;11.120;2023-05-03T01:26:18;98299.00;;;7.50
18219;BMP180;9234;49.344;11.120;2023-05-03T01:28:47;98284.00;;;7.40
18219;BMP180;9234;49.344;11.120;2023-05-03T01:31:21;98286.00;;;7.40
18219;BMP180;9234;49.344;11.120;2023-05-03T01:34:13;98287.00;;;7.30
18219;BMP180;9234;49.344;11.120;2023-05-03T01:36:44;98285.00;;;7.30
18219;BMP180;9234;49.344;11.120;2023-05-03T01:39:20;98286.00;;;7.20
18219;BMP180;9234;49.344;11.120;2023-05-03T01:41:51;98273.00;;;7.20
18219;BMP180;9234;49.344;11.120;2023-05-03T01:44:22;98275.00;;;7.10
18219;BMP180;9234;49.344;11.120;2023-05-03T01:46:51;98293.00;;;7.10
18219;BMP180;9234;49.344;11.120;2023-05-03T01:49:19;98278.00;;;7.10
18219;BMP180;9234;49.344;11.120;2023-05-03T01:51:48;98286.00;;;7.10
18219;BMP180;9234;49.344;11.120;2023-05-03T01:54:16;98280.00;;;7.00
18219;BMP180;9234;49.344;11.120;2023-05-03T01:56:45;98289.00;;;6.90
18219;BMP180;9234;49.344;11.120;2023-05-03T01:59:15;98289.00;;;6.90
18219;BMP180;9234;49.344;11.120;2023-05-03T02:01:43;98295.00;;;6.90
18219;BMP180;9234;49.344;11.120;2023-05-03T02:04:11;98284.00;;;6.90
18219;BMP180;9234;49.344;11.120;2023-05-03T02:06:40;98295.00;;;6.80
18219;BMP180;9234;49.344;11.120;2023-05-03T02:09:08;98302.00;;;6.80
18219;BMP180;9234;49.344;11.120;2023-05-03T02:11:37;98309.00;;;6.80
18219;BMP180;9234;49.344;11.120;2023-05-03T02:14:05;98298.00;;;6.70
18219;BMP180;9234;49.344;11.120;2023-05-03T02:16:35;98303.00;;;6.70
18219;BMP180;9234;49.344;11.120;2023-05-03T02:19:03;98298.00;;;6.70
18219;BMP180;9234;49.344;11.120;2023-05-03T02:21:33;98299.00;;;6.60
18219;BMP180;9234;49.344;11.120;2023-05-03T02:24:01;98303.00;;;6.60
18219;BMP180;9234;49.344;11.120;2023-05-03T02:26:29;98302.00;;;6.50
18219;BMP180;9234;49.344;11.120;2023-05-03T02:28:58;98292.00;;;6.50
18219;BMP180;9234;49.344;11.120;2023-05-03T02:31:29;98302.00;;;6.50
18219;BMP180;9234;49.344;11.120;2023-05-03T02:33:59;98304.00;;;6.40
18219;BMP180;9234;49.344;11.120;2023-05-03T02:36:28;98303.00;;;6.40
18219;BMP180;9234;49.344;11.120;2023-05-03T02:38:59;98304.00;;;6.40
18219;BMP180;9234;49.344;11.120;2023-05-03T02:41:27;98297.00;;;6.30
18219;BMP180;9234;49.344;11.120;2023-05-03T02:43:56;98290.00;;;6.30
18219;BMP180;9234;49.344;11.120;2023-05-03T02:46:26;98303.00;;;6.30
18219;BMP180;9234;49.344;11.120;2023-05-03T02:48:54;98297.00;;;6.20
18219;BMP180;9234;49.344;11.120;2023-05-03T02:51:24;98296.00;;;6.20
18219;BMP180;9234;49.344;11.120;2023-05-03T02:53:52;98289.00;;;6.10
18219;BMP180;9234;49.344;11.120;2023-05-03T02:56:21;98308.00;;;6.10
18219;BMP180;9234;49.344;11.120;2023-05-03T02:58:51;98298.00;;;6.10
18219;BMP180;9234;49.344;11.120;2023-05-03T03:01:21;98305.00;;;6.00
18219;BMP180;9234;49.344;11.120;2023-05-03T03:03:49;98304.00;;;6.00
18219;BMP180;9234;49.344;11.120;2023-05-03T03:06:18;98295.00;;;6.00
18219;BMP180;9234;49.344;11.120;2023-05-03T03:08:48;98315.00;;;5.90
18219;BMP180;9234;49.344;11.120;2023-05-03T03:11:17;98310.00;;;5.90
18219;BMP180;9234;49.344;11.120;2023-05-03T03:13:46;98304.00;;;5.90
18219;BMP180;9234;49.344;11.120;2023-05-03T03:16:14;98305.00;;;5.80
18219;BMP180;9234;49.344;11.120;2023-05-03T03:18:42;98300.00;;;5.80
18219;BMP180;9234;49.344;11.120;2023-05-03T03:21:13;98301.00;;;5.70
18219;BMP180;9234;49.344;11.120;2023-05-03T03:23:41;98309.00;;;5.70
18219;BMP180;9234;49.344;11.120;2023-05-03T03:26:10;98309.00;;;5.70
18219;BMP180;9234;49.344;11.120;2023-05-03T03:28:39;98307.00;;;5.70
18219;BMP180;9234;49.344;11.120;2023-05-03T03:31:10;98301.00;;;5.70
18219;BMP180;9234;49.344;11.120;2023-05-03T03:33:39;98303.00;;;5.60
18219;BMP180;9234;49.344;11.120;2023-05-03T03:36:13;98295.00;;;5.60
18219;BMP180;9234;49.344;11.120;2023-05-03T03:38:44;98296.00;;;5.60
18219;BMP180;9234;49.344;11.120;2023-05-03T03:41:14;98295.00;;;5.50
18219;BMP180;9234;49.344;11.120;2023-05-03T03:43:43;98300.00;;;5.50
18219;BMP180;9234;49.344;11.120;2023-05-03T03:46:16;98315.00;;;5.50
18219;BMP180;9234;49.344;11.120;2023-05-03T03:48:46;98315.00;;;5.40
18219;BMP180;9234;49.344;11.120;2023-05-03T03:51:15;98324.00;;;5.40
18219;BMP180;9234;49.344;11.120;2023-05-03T03:53:46;98326.00;;;5.40
18219;BMP180;9234;49.344;11.120;2023-05-03T03:56:16;98324.00;;;5.40
18219;BMP180;9234;49.344;11.120;2023-05-03T03:58:47;98323.00;;;5.40
18219;BMP180;9234;49.344;11.120;2023-05-03T04:01:15;98325.00;;;5.40
18219;BMP180;9234;49.344;11.120;2023-05-03T04:03:44;98334.00;;;5.40
18219;BMP180;9234;49.344;11.120;2023-05-03T04:06:14;98329.00;;;5.30
18219;BMP180;9234;49.344;11.120;2023-05-03T04:08:42;98332.00;;;5.30
18219;BMP180;9234;49.344;11.120;2023-05-03T04:11:12;98335.00;;;5.30
18219;BMP180;9234;49.344;11.120;2023-05-03T04:13:48;98337.00;;;5.30
18219;BMP180;9234;49.344;11.120;2023-05-03T04:16:16;98334.00;;;5.20
18219;BMP180;9234;49.344;11.120;2023-05-03T04:18:45;98333.00;;;5.20
18219;BMP180;9234;49.344;11.120;2023-05-03T04:21:13;98339.00;;;5.20
18219;BMP180;9234;49.344;11.120;2023-05-03T04:23:42;98338.00;;;5.30
18219;BMP180;9234;49.344;11.120;2023-05-03T04:26:12;98339.00;;;5.30
18219;BMP180;9234;49.344;11.120;2023-05-03T04:29:00;98346.00;;;5.30
18219;BMP180;9234;49.344;11.120;2023-05-03T04:31:28;98361.00;;;5.30
18219;BMP180;9234;49.344;11.120;2023-05-03T04:33:57;98352.00;;;5.30
18219;BMP180;9234;49.344;11.120;2023-05-03T04:36:25;98347.00;;;5.40
18219;BMP180;9234;49.344;11.120;2023-05-03T04:38:57;98348.00;;;5.40
18219;BMP180;9234;49.344;11.120;2023-05-03T04:41:25;98354.00;;;5.40
18219;BMP180;9234;49.344;11.120;2023-05-03T04:43:54;98352.00;;;5.50
18219;BMP180;9234;49.344;11.120;2023-05-03T04:46:24;98359.00;;;5.50
18219;BMP180;9234;49.344;11.120;2023-05-03T04:48:52;98366.00;;;5.60
18219;BMP180;9234;49.344;11.120;2023-05-03T04:51:21;98368.00;;;5.60
18219;BMP180;9234;49.344;11.120;2023-05-03T04:53:51;98378.00;;;5.60
18219;BMP180;9234;49.344;11.120;2023-05-03T04:56:20;98374.00;;;5.70
18219;BMP180;9234;49.344;11.120;2023-05-03T04:58:57;98373.00;;;5.70
18219;BMP180;9234;49.344;11.120;2023-05-03T05:01:27;98384.00;;;5.80
18219;BMP180;9234;49.344;11.120;2023-05-03T05:03:59;98377.00;;;5.90
18219;BMP180;9234;49.344;11.120;2023-05-03T05:06:34;98381.00;;;6.00
18219;BMP180;9234;49.344;11.120;2023-05-03T05:09:02;98386.00;;;6.10
18219;BMP180;9234;49.344;11.120;2023-05-03T05:11:32;98386.00;;;6.20
18219;BMP180;9234;49.344;11.120;2023-05-03T05:14:00;98387.00;;;6.20
18219;BMP180;9234;49.344;11.120;2023-05-03T05:16:30;98385.00;;;6.40
18219;BMP180;9234;49.344;11.120;2023-05-03T05:18:58;98395.00;;;6.40
18219;BMP180;9234;49.344;11.120;2023-05-03T05:21:27;98403.00;;;6.60
18219;BMP180;9234;49.344;11.120;2023-05-03T05:23:56;98409.00;;;6.70
18219;BMP180;9234;49.344;11.120;2023-05-03T05:26:25;98403.00;;;6.80
18219;BMP180;9234;49.344;11.120;2023-05-03T05:28:54;98402.00;;;7.00
18219;BMP180;9234;49.344;11.120;2023-05-03T05:31:23;98403.00;;;7.10
18219;BMP180;9234;49.344;11.120;2023-05-03T05:33:53;98403.00;;;7.20
18219;BMP180;9234;49.344;11.120;2023-05-03T05:36:22;98386.00;;;7.30
18219;BMP180;9234;49.344;11.120;2023-05-03T05:38:51;98402.00;;;7.40
18219;BMP180;9234;49.344;11.120;2023-05-03T05:41:19;98389.00;;;7.50
18219;BMP180;9234;49.344;11.120;2023-05-03T05:43:48;98421.00;;;7.60
18219;BMP180;9234;49.344;11.120;2023-05-03T05:46:16;98427.00;;;7.70
18219;BMP180;9234;49.344;11.120;2023-05-03T05:48:48;98410.00;;;7.80
18219;BMP180;9234;49.344;11.120;2023-05-03T05:51:19;98412.00;;;7.90
18219;BMP180;9234;49.344;11.120;2023-05-03T05:53:47;98432.00;;;8.00
18219;BMP180;9234;49.344;11.120;2023-05-03T05:56:17;98414.00;;;8.10
18219;BMP180;9234;49.344;11.120;2023-05-03T05:58:45;98416.00;;;8.20
18219;BMP180;9234;49.344;11.120;2023-05-03T06:01:13;98422.00;;;8.30
18219;BMP180;9234;49.344;11.120;2023-05-03T06:03:41;98412.00;;;8.50
18219;BMP180;9234;49.344;11.120;2023-05-03T06:06:10;98425.00;;;8.50
18219;BMP180;9234;49.344;11.120;2023-05-03T06:08:39;98433.00;;;8.60
18219;BMP180;9234;49.344;11.120;2023-05-03T06:11:07;98418.00;;;8.70
18219;BMP180;9234;49.344;11.120;2023-05-03T06:13:35;98415.00;;;8.80
18219;BMP180;9234;49.344;11.120;2023-05-03T06:16:07;98422.00;;;8.90
18219;BMP180;9234;49.344;11.120;2023-05-03T06:18:35;98412.00;;;9.00
18219;BMP180;9234;49.344;11.120;2023-05-03T06:21:06;98414.00;;;9.10
18219;BMP180;9234;49.344;11.120;2023-05-03T06:23:35;98413.00;;;9.20
18219;BMP180;9234;49.344;11.120;2023-05-03T06:26:08;98408.00;;;9.30
18219;BMP180;9234;49.344;11.120;2023-05-03T06:28:36;98412.00;;;9.40
18219;BMP180;9234;49.344;11.120;2023-05-03T06:31:04;98405.00;;;9.50
18219;BMP180;9234;49.344;11.120;2023-05-03T06:33:34;98421.00;;;9.60
18219;BMP180;9234;49.344;11.120;2023-05-03T06:36:02;98409.00;;;9.70
18219;BMP180;9234;49.344;11.120;2023-05-03T06:38:31;98402.00;;;9.80
18219;BMP180;9234;49.344;11.120;2023-05-03T06:40:59;98415.00;;;9.90
18219;BMP180;9234;49.344;11.120;2023-05-03T06:43:28;98401.00;;;10.00
18219;BMP180;9234;49.344;11.120;2023-05-03T06:46:01;98406.00;;;10.20
18219;BMP180;9234;49.344;11.120;2023-05-03T06:48:30;98421.00;;;10.30
18219;BMP180;9234;49.344;11.120;2023-05-03T06:50:58;98423.00;;;10.40
18219;BMP180;9234;49.344;11.120;2023-05-03T06:53:26;98424.00;;;10.50
18219;BMP180;9234;49.344;11.120;2023-05-03T06:55:55;98414.00;;;10.60
18219;BMP180;9234;49.344;11.120;2023-05-03T06:58:23;98411.00;;;10.70
18219;BMP180;9234;49.344;11.120;2023-05-03T07:00:52;98397.00;;;10.80
18219;BMP180;9234;49.344;11.120;2023-05-03T07:03:21;98408.00;;;11.00
18219;BMP180;9234;49.344;11.120;2023-05-03T07:05:49;98406.00;;;11.00
18219;BMP180;9234;49.344;11.120;2023-05-03T07:08:17;98397.00;;;11.20
18219;BMP180;9234;49.344;11.120;2023-05-03T07:10:46;98393.00;;;11.30
18219;BMP180;9234;49.344;11.120;2023-05-03T07:13:14;98382.00;;;11.40
18219;BMP180;9234;49.344;11.120;2023-05-03T07:15:42;98394.00;;;11.50
18219;BMP180;9234;49.344;11.120;2023-05-03T07:18:13;98393.00;;;11.70
18219;BMP180;9234;49.344;11.120;2023-05-03T07:20:41;98383.00;;;11.80
18219;BMP180;9234;49.344;11.120;2023-05-03T07:23:09;98389.00;;;11.80
18219;BMP180;9234;49.344;11.120;2023-05-03T07:25:37;98378.00;;;12.00
18219;BMP180;9234;49.344;11.120;2023-05-03T07:28:06;98390.00;;;12.10
18219;BMP180;9234;49.344;11.120;2023-05-03T07:30:34;98380.00;;;12.20
18219;BMP180;9234;49.344;11.120;2023-05-03T07:33:03;98385.00;;;12.30
18219;BMP180;9234;49.344;11.120;2023-05-03T07:35:32;98368.00;;;12.40
18219;BMP180;9234;49.344;11.120;2023-05-03T07:38:00;98373.00;;;12.50
18219;BMP180;9234;49.344;11.120;2023-05-03T07:40:29;98370.00;;;12.60
18219;BMP180;9234;49.344;11.120;2023-05-03T07:42:59;98374.00;;;12.80
18219;BMP180;9234;49.344;11.120;2023-05-03T07:45:27;98370.00;;;12.90
18219;BMP180;9234;49.344;11.120;2023-05-03T07:47:55;98365.00;;;13.10
18219;BMP180;9234;49.344;11.120;2023-05-03T07:50:24;98361.00;;;13.20
18219;BMP180;9234;49.344;11.120;2023-05-03T07:52:53;98365.00;;;13.30
18219;BMP180;9234;49.344;11.120;2023-05-03T07:55:22;98364.00;;;13.50
18219;BMP180;9234;49.344;11.120;2023-05-03T07:57:51;98362.00;;;13.60
18219;BMP180;9234;49.344;11.120;2023-05-03T08:00:24;98351.00;;;13.70
18219;BMP180;9234;49.344;11.120;2023-05-03T08:02:53;98358.00;;;13.90
18219;BMP180;9234;49.344;11.120;2023-05-03T08:05:22;98350.00;;;14.00
18219;BMP180;9234;49.344;11.120;2023-05-03T08:07:50;98348.00;;;14.20
18219;BMP180;9234;49.344;11.120;2023-05-03T08:10:20;98356.00;;;14.50
18219;BMP180;9234;49.344;11.120;2023-05-03T08:12:48;98335.00;;;14.60
18219;BMP180;9234;49.344;11.120;2023-05-03T08:15:17;98351.00;;;14.80
18219;BMP180;9234;49.344;11.120;2023-05-03T08:17:45;98342.00;;;15.00
18219;BMP180;9234;49.344;11.120;2023-05-03T08:20:13;98346.00;;;15.20
18219;BMP180;9234;49.344;11.120;2023-05-03T08:22:42;98349.00;;;15.40
18219;BMP180;9234;49.344;11.120;2023-05-03T08:25:12;98339.00;;;15.60
18219;BMP180;9234;49.344;11.120;2023-05-03T08:27:44;98354.00;;;15.90
18219;BMP180;9234;49.344;11.120;2023-05-03T08:30:12;98350.00;;;16.20
18219;BMP180;9234;49.344;11.120;2023-05-03T08:32:41;98352.00;;;16.50
18219;BMP180;9234;49.344;11.120;2023-05-03T08:35:09;98356.00;;;16.80
18219;BMP180;9234;49.344;11.120;2023-05-03T08:37:40;98359.00;;;17.10
18219;BMP180;9234;49.344;11.120;2023-05-03T08:40:10;98347.00;;;17.40
18219;BMP180;9234;49.344;11.120;2023-05-03T08:42:41;98354.00;;;17.70
18219;BMP180;9234;49.344;11.120;2023-05-03T08:45:14;98353.00;;;17.90
18219;BMP180;9234;49.344;11.120;2023-05-03T08:47:43;98349.00;;;17.90
18219;BMP180;9234;49.344;11.120;2023-05-03T08:50:13;98341.00;;;17.90
18219;BMP180;9234;49.344;11.120;2023-05-03T08:52:42;98356.00;;;17.70
18219;BMP180;9234;49.344;11.120;2023-05-03T08:55:11;98344.00;;;17.60
18219;BMP180;9234;49.344;11.120;2023-05-03T08:57:40;98356.00;;;17.60
18219;BMP180;9234;49.344;11.120;2023-05-03T09:00:11;98350.00;;;17.60
18219;BMP180;9234;49.344;11.120;2023-05-03T09:02:40;98357.00;;;17.70
18219;BMP180;9234;49.344;11.120;2023-05-03T09:05:31;98356.00;;;18.00
18219;BMP180;9234;49.344;11.120;2023-05-03T09:08:01;98357.00;;;18.20
18219;BMP180;9234;49.344;11.120;2023-05-03T09:10:31;98362.00;;;18.40
18219;BMP180;9234;49.344;11.120;2023-05-03T09:13:00;98350.00;;;18.50
18219;BMP180;9234;49.344;11.120;2023-05-03T09:15:30;98344.00;;;18.80
18219;BMP180;9234;49.344;11.120;2023-05-03T09:18:11;98354.00;;;19.10
18219;BMP180;9234;49.344;11.120;2023-05-03T09:20:41;98354.00;;;19.20
18219;BMP180;9234;49.344;11.120;2023-05-03T09:23:18;98360.00;;;19.30
18219;BMP180;9234;49.344;11.120;2023-05-03T09:25:49;98367.00;;;19.60
18219;BMP180;9234;49.344;11.120;2023-05-03T09:28:18;98368.00;;;19.80
18219;BMP180;9234;49.344;11.120;2023-05-03T09:30:50;98348.00;;;19.80
18219;BMP180;9234;49.344;11.120;2023-05-03T09:33:30;98366.00;;;20.00
18219;BMP180;9234;49.344;11.120;2023-05-03T09:36:00;98351.00;;;20.00
18219;BMP180;9234;49.344;11.120;2023-05-03T09:38:30;98346.00;;;20.00
18219;BMP180;9234;49.344;11.120;2023-05-03T09:41:00;98350.00;;;20.20
18219;BMP180;9234;49.344;11.120;2023-05-03T09:43:28;98354.00;;;20.30
18219;BMP180;9234;49.344;11.120;2023-05-03T09:46:09;98353.00;;;20.40
18219;BMP180;9234;49.344;11.120;2023-05-03T09:48:39;98347.00;;;20.50
18219;BMP180;9234;49.344;11.120;2023-05-03T09:51:10;98345.00;;;20.80
18219;BMP180;9234;49.344;11.120;2023-05-03T09:53:39;98339.00;;;21.00
18219;BMP180;9234;49.344;11.120;2023-05-03T09:56:09;98350.00;;;20.80
18219;BMP180;9234;49.344;11.120;2023-05-03T09:58:40;98349.00;;;20.60
18219;BMP180;9234;49.344;11.120;2023-05-03T10:01:13;98343.00;;;20.20
18219;BMP180;9234;49.344;11.120;2023-05-03T10:03:44;98345.00;;;20.00
18219;BMP180;9234;49.344;11.120;2023-05-03T10:06:25;98343.00;;;19.90
18219;BMP180;9234;49.344;11.120;2023-05-03T10:09:02;98340.00;;;20.10
18219;BMP180;9234;49.344;11.120;2023-05-03T10:11:34;98337.00;;;20.50
18219;BMP180;9234;49.344;11.120;2023-05-03T10:14:04;98337.00;;;20.80
18219;BMP180;9234;49.344;11.120;2023-05-03T10:16:39;98334.00;;;21.20
18219;BMP180;9234;49.344;11.120;2023-05-03T10:19:14;98335.00;;;21.40
18219;BMP180;9234;49.344;11.120;2023-05-03T10:22:01;98327.00;;;21.30
18219;BMP180;9234;49.344;11.120;2023-05-03T10:24:33;98332.00;;;21.20
18219;BMP180;9234;49.344;11.120;2023-05-03T10:27:05;98340.00;;;21.00
18219;BMP180;9234;49.344;11.120;2023-05-03T10:29:50;98325.00;;;20.70
18219;BMP180;9234;49.344;11.120;2023-05-03T10:32:35;98330.00;;;20.60
18219;BMP180;9234;49.344;11.120;2023-05-03T10:35:08;98327.00;;;20.60
18219;BMP180;9234;49.344;11.120;2023-05-03T10:37:40;98319.00;;;20.60
18219;BMP180;9234;49.344;11.120;2023-05-03T10:40:12;98320.00;;;20.70
18219;BMP180;9234;49.344;11.120;2023-05-03T10:42:44;98311.00;;;21.00
18219;BMP180;9234;49.344;11.120;2023-05-03T10:45:24;98305.00;;;21.10
18219;BMP180;9234;49.344;11.120;2023-05-03T10:48:22;98309.00;;;21.00
18219;BMP180;9234;49.344;11.120;2023-05-03T10:50:51;98297.00;;;20.80
18219;BMP180;9234;49.344;11.120;2023-05-03T10:53:39;98304.00;;;20.50
18219;BMP180;9234;49.344;11.120;2023-05-03T10:56:11;98317.00;;;20.30
18219;BMP180;9234;49.344;11.120;2023-05-03T10:58:43;98325.00;;;20.10
18219;BMP180;9234;49.344;11.120;2023-05-03T11:01:15;98318.00;;;20.00
18219;BMP180;9234;49.344;11.120;2023-05-03T11:03:51;98304.00;;;20.00
18219;BMP180;9234;49.344;11.120;2023-05-03T11:06:32;98311.00;;;20.30
18219;BMP180;9234;49.344;11.120;2023-05-03T11:09:04;98303.00;;;20.80
18219;BMP180;9234;49.344;11.120;2023-05-03T11:11:35;98295.00;;;21.20
18219;BMP180;9234;49.344;11.120;2023-05-03T11:14:05;98296.00;;;21.60
18219;BMP180;9234;49.344;11.120;2023-05-03T11:16:33;98300.00;;;21.90
18219;BMP180;9234;49.344;11.120;2023-05-03T11:19:05;98296.00;;;21.90
18219;BMP180;9234;49.344;11.120;2023-05-03T11:21:33;98298.00;;;21.80
18219;BMP180;9234;49.344;11.120;2023-05-03T11:24:02;98286.00;;;21.90
18219;BMP180;9234;49.344;11.120;2023-05-03T11:26:35;98293.00;;;22.10
18219;BMP180;9234;49.344;11.120;2023-05-03T11:29:03;98293.00;;;22.40
18219;BMP180;9234;49.344;11.120;2023-05-03T11:31:32;98296.00;;;22.80
18219;BMP180;9234;49.344;11.120;2023-05-03T11:34:04;98284.00;;;23.30
18219;BMP180;9234;49.344;11.120;2023-05-03T11:36:33;98290.00;;;23.70
18219;BMP180;9234;49.344;11.120;2023-05-03T11:39:01;98284.00;;;24.10
18219;BMP180;9234;49.344;11.120;2023-05-03T11:41:31;98279.00;;;24.50
18219;BMP180;9234;49.344;11.120;2023-05-03T11:44:00;98283.00;;;24.50
18219;BMP180;9234;49.344;11.120;2023-05-03T11:46:44;98285.00;;;24.60
18219;BMP180;9234;49.344;11.120;2023-05-03T11:49:18;98284.00;;;24.80
18219;BMP180;9234;49.344;11.120;2023-05-03T11:51:47;98278.00;;;24.90
18219;BMP180;9234;49.344;11.120;2023-05-03T11:54:20;98269.00;;;24.90
18219;BMP180;9234;49.344;11.120;2023-05-03T11:56:55;98275.00;;;24.90
18219;BMP180;9234;49.344;11.120;2023-05-03T11:59:36;98272.00;;;24.70
18219;BMP180;9234;49.344;11.120;2023-05-03T12:02:06;98273.00;;;24.20
18219;BMP180;9234;49.344;11.120;2023-05-03T12:04:38;98283.00;;;23.90
18219;BMP180;9234;49.344;11.120;2023-05-03T12:07:10;98281.00;;;23.40
18219;BMP180;9234;49.344;11.120;2023-05-03T12:09:41;98269.00;;;22.90
18219;BMP180;9234;49.344;11.120;2023-05-03T12:12:21;98281.00;;;22.40
18219;BMP180;9234;49.344;11.120;2023-05-03T12:14:58;98269.00;;;22.30
18219;BMP180;9234;49.344;11.120;2023-05-03T12:17:34;98272.00;;;22.50
18219;BMP180;9234;49.344;11.120;2023-05-03T12:20:21;98272.00;;;22.90
18219;BMP180;9234;49.344;11.120;2023-05-03T12:22:54;98269.00;;;23.60
18219;BMP180;9234;49.344;11.120;2023-05-03T12:25:25;98265.00;;;24.40
18219;BMP180;9234;49.344;11.120;2023-05-03T12:28:01;98254.00;;;25.20
18219;BMP180;9234;49.344;11.120;2023-05-03T12:30:45;98259.00;;;25.80
18219;BMP180;9234;49.344;11.120;2023-05-03T12:33:13;98264.00;;;25.10
18219;BMP180;9234;49.344;11.120;2023-05-03T12:35:44;98258.00;;;24.40
18219;BMP180;9234;49.344;11.120;2023-05-03T12:38:14;98275.00;;;24.10
18219;BMP180;9234;49.344;11.120;2023-05-03T12:40:44;98263.00;;;24.00
18219;BMP180;9234;49.344;11.120;2023-05-03T12:43:13;98261.00;;;23.70
18219;BMP180;9234;49.344;11.120;2023-05-03T12:45:42;98264.00;;;23.70
18219;BMP180;9234;49.344;11.120;2023-05-03T12:48:19;98258.00;;;24.20
18219;BMP180;9234;49.344;11.120;2023-05-03T12:50:52;98251.00;;;24.70
18219;BMP180;9234;49.344;11.120;2023-05-03T12:53:43;98248.00;;;25.20
18219;BMP180;9234;49.344;11.120;2023-05-03T12:56:13;98249.00;;;26.30
18219;BMP180;9234;49.344;11.120;2023-05-03T12:58:42;98249.00;;;27.50
18219;BMP180;9234;49.344;11.120;2023-05-03T13:01:33;98239.00;;;28.70
18219;BMP180;9234;49.344;11.120;2023-05-03T13:04:21;98228.00;;;29.70
18219;BMP180;9234;49.344;11.120;2023-05-03T13:07:11;98238.00;;;30.00
18219;BMP180;9234;49.344;11.120;2023-05-03T13:09:43;98234.00;;;30.20
18219;BMP180;9234;49.344;11.120;2023-05-03T13:12:31;98235.00;;;30.70
18219;BMP180;9234;49.344;11.120;2023-05-03T13:15:01;98234.00;;;31.50
18219;BMP180;9234;49.344;11.120;2023-05-03T13:17:30;98237.00;;;32.10
18219;BMP180;9234;49.344;11.120;2023-05-03T13:19:59;98229.00;;;32.60
18219;BMP180;9234;49.344;11.120;2023-05-03T13:22:28;98233.00;;;31.80
18219;BMP180;9234;49.344;11.120;2023-05-03T13:24:57;98215.00;;;30.30
18219;BMP180;9234;49.344;11.120;2023-05-03T13:27:25;98225.00;;;28.90
18219;BMP180;9234;49.344;11.120;2023-05-03T13:29:53;98211.00;;;28.10
18219;BMP180;9234;49.344;11.120;2023-05-03T13:32:21;98217.00;;;28.10
18219;BMP180;9234;49.344;11.120;2023-05-03T13:34:50;98205.00;;;29.00
18219;BMP180;9234;49.344;11.120;2023-05-03T13:37:18;98196.00;;;29.80
18219;BMP180;9234;49.344;11.120;2023-05-03T13:39:48;98198.00;;;30.40
18219;BMP180;9234;49.344;11.120;2023-05-03T13:42:16;98194.00;;;30.80
18219;BMP180;9234;49.344;11.120;2023-05-03T13:44:44;98201.00;;;31.40
18219;BMP180;9234;49.344;11.120;2023-05-03T13:47:14;98190.00;;;32.20
18219;BMP180;9234;49.344;11.120;2023-05-03T13:49:42;98192.00;;;32.80
18219;BMP180;9234;49.344;11.120;2023-05-03T13:52:10;98192.00;;;32.40
18219;BMP180;9234;49.344;11.120;2023-05-03T13:54:38;98189.00;;;31.60
18219;BMP180;9234;49.344;11.120;2023-05-03T13:57:09;98187.00;;;30.40
18219;BMP180;9234;49.344;11.120;2023-05-03T13:59:37;98182.00;;;29.10
18219;BMP180;9234;49.344;11.120;2023-05-03T14:02:06;98190.00;;;27.90
18219;BMP180;9234;49.344;11.120;2023-05-03T14:04:34;98168.00;;;26.90
18219;BMP180;9234;49.344;11.120;2023-05-03T14:07:03;98189.00;;;26.90
18219;BMP180;9234;49.344;11.120;2023-05-03T14:09:31;98183.00;;;28.30
18219;BMP180;9234;49.344;11.120;2023-05-03T14:12:05;98176.00;;;29.80
18219;BMP180;9234;49.344;11.120;2023-05-03T14:14:36;98176.00;;;31.20
18219;BMP180;9234;49.344;11.120;2023-05-03T14:17:04;98178.00;;;32.20
18219;BMP180;9234;49.344;11.120;2023-05-03T14:19:35;98187.00;;;33.00
18219;BMP180;9234;49.344;11.120;2023-05-03T14:22:03;98189.00;;;32.30
18219;BMP180;9234;49.344;11.120;2023-05-03T14:24:32;98189.00;;;31.00
18219;BMP180;9234;49.344;11.120;2023-05-03T14:27:00;98184.00;;;30.50
18219;BMP180;9234;49.344;11.120;2023-05-03T14:29:28;98189.00;;;31.00
18219;BMP180;9234;49.344;11.120;2023-05-03T14:31:58;98184.00;;;31.70
18219;BMP180;9234;49.344;11.120;2023-05-03T14:34:27;98182.00;;;32.50
18219;BMP180;9234;49.344;11.120;2023-05-03T14:36:55;98184.00;;;33.10